Time;durP1;ratioP1;P1;durP2;ratioP2;P2;SDS_P1;SDS_P2;PMS_P1;PMS_P2;Temp;Humidity;BMP_temperature;BMP_pressure;BME280_temperature;BME280_humidity;BME280_pressure;Samples;Min_cycle;Max_cycle;Signal;HPM_P1;HPM_P2
2022/03/10 00:02:08;;;;;;;21.83;7.80;;;;;;;;;;5023797;28;20054;-55
2022/03/10 00:04:34;;;;;;;22.92;8.57;;;;;;;;;;5001141;28;20610;-56
2022/03/10 00:07:02;;;;;;;20.05;7.80;;;;;;;;;;5004912;28;20037;-55
2022/03/10 00:09:29;;;;;;;19.83;7.78;;;;;;;;;;5004725;28;20054;-53
2022/03/10 00:11:56;;;;;;;20.67;8.25;;;;;;;;;;5004060;28;20081;-53
2022/03/10 00:14:22;;;;;;;18.90;7.63;;;;;;;;;;5008848;28;20132;-56
2022/03/10 00:16:49;;;;;;;16.70;6.50;;;;;;;;;;4993556;28;20141;-56
2022/03/10 00:19:16;;;;;;;17.60;7.35;;;;;;;;;;4995488;28;20064;-51
2022/03/10 00:21:42;;;;;;;14.90;6.70;;;;;;;;;;4998835;28;20073;-55
2022/03/10 00:24:11;;;;;;;20.85;8.13;;;;;;;;;;5000989;28;20064;-51
2022/03/10 00:26:38;;;;;;;21.65;8.32;;;;;;;;;;5007021;28;20045;-56
2022/03/10 00:29:05;;;;;;;16.90;7.05;;;;;;;;;;5023638;28;20086;-52
2022/03/10 00:31:31;;;;;;;17.95;7.20;;;;;;;;;;5004237;28;20072;-55
2022/03/10 00:33:58;;;;;;;17.00;6.90;;;;;;;;;;5011720;28;20045;-55
2022/03/10 00:36:24;;;;;;;21.05;8.40;;;;;;;;;;5005964;28;20406;-52
2022/03/10 00:38:51;;;;;;;20.73;7.38;;;;;;;;;;5010328;28;20054;-53
2022/03/10 00:41:19;;;;;;;16.00;6.28;;;;;;;;;;5006291;28;20057;-50
2022/03/10 00:43:46;;;;;;;21.90;8.18;;;;;;;;;;5012188;28;20137;-54
2022/03/10 00:46:12;;;;;;;18.33;7.90;;;;;;;;;;5005115;28;20045;-53
2022/03/10 00:48:39;;;;;;;17.02;6.80;;;;;;;;;;5012156;28;20139;-49
2022/03/10 00:51:06;;;;;;;23.52;7.78;;;;;;;;;;5005665;28;20115;-50
2022/03/10 00:53:33;;;;;;;19.15;8.38;;;;;;;;;;5011758;28;20064;-55
2022/03/10 00:55:59;;;;;;;17.40;7.13;;;;;;;;;;5027860;28;20060;-56
2022/03/10 00:58:27;;;;;;;27.88;8.93;;;;;;;;;;5005611;28;20057;-54
2022/03/10 01:00:54;;;;;;;22.33;7.88;;;;;;;;;;5011345;28;20060;-52
2022/03/10 01:03:21;;;;;;;17.08;6.78;;;;;;;;;;5021689;28;20061;-55
2022/03/10 01:05:47;;;;;;;19.90;7.88;;;;;;;;;;5011925;28;20108;-55
2022/03/10 01:08:14;;;;;;;16.80;7.57;;;;;;;;;;5005195;28;20461;-55
2022/03/10 01:10:41;;;;;;;15.40;6.82;;;;;;;;;;5027327;28;20148;-57
2022/03/10 01:13:15;;;;;;;17.80;6.63;;;;;;;;;;5018577;28;20097;-55
2022/03/10 01:15:45;;;;;;;17.55;6.45;;;;;;;;;;5004560;28;20083;-52
2022/03/10 01:18:12;;;;;;;24.10;7.53;;;;;;;;;;5005516;28;20053;-54
2022/03/10 01:20:41;;;;;;;22.17;7.63;;;;;;;;;;5027370;28;20049;-56
2022/03/10 01:23:09;;;;;;;15.57;6.07;;;;;;;;;;5025094;28;20049;-51
2022/03/10 01:25:35;;;;;;;24.70;7.82;;;;;;;;;;5030649;28;20052;-55
2022/03/10 01:28:02;;;;;;;14.77;5.93;;;;;;;;;;5019118;28;20049;-54
2022/03/10 01:30:28;;;;;;;21.75;7.88;;;;;;;;;;5005959;28;20046;-57
2022/03/10 01:32:56;;;;;;;16.15;6.63;;;;;;;;;;4989660;28;20057;-54
2022/03/10 01:35:23;;;;;;;21.80;7.30;;;;;;;;;;4995311;28;20059;-57
2022/03/10 01:37:51;;;;;;;15.20;5.85;;;;;;;;;;5008607;28;20300;-52
2022/03/10 01:40:18;;;;;;;18.98;7.30;;;;;;;;;;5013099;28;20054;-54
2022/03/10 01:42:44;;;;;;;17.60;6.78;;;;;;;;;;5011536;28;20180;-55
2022/03/10 01:45:14;;;;;;;15.27;5.50;;;;;;;;;;5004606;28;20057;-53
2022/03/10 01:47:41;;;;;;;21.55;8.23;;;;;;;;;;5026278;28;20060;-54
2022/03/10 01:50:10;;;;;;;17.00;5.90;;;;;;;;;;5004576;28;20054;-55
2022/03/10 01:52:36;;;;;;;19.17;6.68;;;;;;;;;;5010314;28;20057;-51
2022/03/10 01:55:04;;;;;;;13.52;5.55;;;;;;;;;;5002823;28;20049;-51
2022/03/10 01:57:30;;;;;;;15.77;6.10;;;;;;;;;;5009685;28;20068;-49
2022/03/10 01:59:57;;;;;;;22.38;7.80;;;;;;;;;;5004315;28;20053;-51
2022/03/10 02:02:23;;;;;;;18.25;7.10;;;;;;;;;;5009703;28;20082;-53
2022/03/10 02:04:53;;;;;;;20.92;7.50;;;;;;;;;;5003986;28;20140;-52
2022/03/10 02:10:19;;;;;;;15.43;6.75;;;;;;;;;;5004154;28;20060;-49
2022/03/10 02:12:47;;;;;;;17.02;6.90;;;;;;;;;;5026511;28;20131;-51
2022/03/10 02:17:58;;;;;;;17.05;7.15;;;;;;;;;;4989827;28;20053;-56
2022/03/10 02:20:25;;;;;;;19.70;6.95;;;;;;;;;;4993632;28;20400;-56
2022/03/10 02:22:53;;;;;;;20.50;7.28;;;;;;;;;;5009824;28;20050;-54
2022/03/10 02:25:20;;;;;;;19.30;7.10;;;;;;;;;;5004466;28;20057;-57
2022/03/10 02:27:49;;;;;;;19.48;8.23;;;;;;;;;;5025693;28;20139;-51
2022/03/10 02:30:16;;;;;;;18.08;6.72;;;;;;;;;;5003765;28;20053;-53
2022/03/10 02:32:43;;;;;;;16.83;6.82;;;;;;;;;;5009979;28;20104;-56
2022/03/10 02:35:10;;;;;;;13.05;5.88;;;;;;;;;;5005004;28;20068;-55
2022/03/10 02:37:37;;;;;;;15.98;6.90;;;;;;;;;;5011352;28;20065;-59
2022/03/10 02:40:08;;;;;;;20.52;6.88;;;;;;;;;;5010908;28;20116;-53
2022/03/10 02:42:34;;;;;;;16.38;6.15;;;;;;;;;;5005386;28;20081;-58
2022/03/10 02:45:01;;;;;;;16.25;7.03;;;;;;;;;;5010264;28;20061;-60
2022/03/10 02:47:28;;;;;;;13.27;5.63;;;;;;;;;;5004778;28;20065;-51
2022/03/10 02:49:54;;;;;;;15.60;6.38;;;;;;;;;;5010323;28;20061;-51
2022/03/10 02:52:21;;;;;;;16.23;6.15;;;;;;;;;;5004358;28;20120;-50
2022/03/10 02:54:48;;;;;;;16.75;5.80;;;;;;;;;;5009851;28;20066;-50
2022/03/10 02:57:16;;;;;;;20.15;7.05;;;;;;;;;;5017492;28;20499;-51
2022/03/10 02:59:42;;;;;;;19.03;6.60;;;;;;;;;;4989929;28;20129;-48
2022/03/10 03:02:09;;;;;;;18.77;7.88;;;;;;;;;;4994071;28;20049;-53
2022/03/10 03:04:35;;;;;;;17.40;7.20;;;;;;;;;;5009720;28;20100;-52
2022/03/10 03:07:02;;;;;;;17.33;6.00;;;;;;;;;;5004536;28;20112;-54
2022/03/10 03:09:30;;;;;;;23.50;7.95;;;;;;;;;;5026199;28;20136;-53
2022/03/10 03:11:56;;;;;;;16.23;6.78;;;;;;;;;;4995459;28;20053;-51
2022/03/10 03:14:24;;;;;;;15.32;6.22;;;;;;;;;;5013502;28;20076;-50
2022/03/10 03:16:51;;;;;;;14.65;6.03;;;;;;;;;;5025414;28;20565;-52
2022/03/10 03:19:17;;;;;;;22.02;8.10;;;;;;;;;;5031743;28;20148;-52
2022/03/10 03:21:44;;;;;;;22.42;7.72;;;;;;;;;;5032890;28;20102;-49
2022/03/10 03:24:11;;;;;;;15.40;6.45;;;;;;;;;;5007292;28;20108;-48
2022/03/10 03:26:37;;;;;;;15.20;6.70;;;;;;;;;;5005716;28;20061;-54
2022/03/10 03:29:04;;;;;;;15.57;6.55;;;;;;;;;;5009306;28;20514;-56
2022/03/10 03:31:32;;;;;;;19.13;6.85;;;;;;;;;;5015595;28;20061;-52
2022/03/10 03:33:58;;;;;;;21.13;6.47;;;;;;;;;;5022822;28;20056;-53
2022/03/10 03:36:25;;;;;;;14.43;5.47;;;;;;;;;;4993336;28;20069;-54
2022/03/10 03:38:51;;;;;;;18.63;6.68;;;;;;;;;;4999563;28;20060;-52
2022/03/10 03:41:18;;;;;;;16.05;5.90;;;;;;;;;;5012157;28;20057;-50
2022/03/10 03:43:45;;;;;;;16.40;6.53;;;;;;;;;;5006991;28;20120;-50
2022/03/10 03:46:11;;;;;;;15.38;6.50;;;;;;;;;;5012430;28;20136;-56
2022/03/10 03:48:39;;;;;;;18.58;7.07;;;;;;;;;;5023575;28;20057;-50
2022/03/10 03:51:06;;;;;;;17.60;6.45;;;;;;;;;;5012361;28;20050;-52
2022/03/10 03:53:32;;;;;;;20.17;6.43;;;;;;;;;;5004711;28;20062;-48
2022/03/10 03:55:59;;;;;;;18.90;7.40;;;;;;;;;;5048415;28;20135;-52
2022/03/10 03:58:26;;;;;;;22.17;8.18;;;;;;;;;;5023917;28;20064;-51
2022/03/10 04:00:52;;;;;;;17.48;6.68;;;;;;;;;;5013049;28;20136;-52
2022/03/10 04:03:19;;;;;;;19.38;7.38;;;;;;;;;;5029579;28;20096;-56
2022/03/10 04:05:47;;;;;;;17.75;7.25;;;;;;;;;;5007976;28;20053;-55
2022/03/10 04:08:14;;;;;;;20.52;7.20;;;;;;;;;;5029654;28;20053;-55
2022/03/10 04:10:40;;;;;;;19.55;7.03;;;;;;;;;;5020506;28;20085;-54
2022/03/10 04:13:09;;;;;;;16.25;5.93;;;;;;;;;;4992585;28;20057;-52
2022/03/10 04:15:35;;;;;;;13.25;5.47;;;;;;;;;;5001349;28;20080;-56
2022/03/10 04:18:02;;;;;;;19.63;7.43;;;;;;;;;;5028176;28;20053;-56
2022/03/10 04:20:29;;;;;;;18.13;6.75;;;;;;;;;;5005756;28;20147;-56
2022/03/10 04:22:57;;;;;;;14.25;6.00;;;;;;;;;;5011617;28;20049;-57
2022/03/10 04:25:23;;;;;;;19.35;7.20;;;;;;;;;;5006047;28;20168;-56
2022/03/10 04:27:53;;;;;;;17.98;6.97;;;;;;;;;;5012631;28;20049;-51
2022/03/10 04:30:22;;;;;;;16.73;6.25;;;;;;;;;;5004290;28;20046;-55
2022/03/10 04:32:49;;;;;;;20.65;7.43;;;;;;;;;;5011813;28;20068;-55
2022/03/10 04:35:16;;;;;;;14.95;6.07;;;;;;;;;;5006289;28;20084;-55
2022/03/10 04:37:43;;;;;;;13.32;5.72;;;;;;;;;;5027897;28;20050;-50
2022/03/10 04:40:12;;;;;;;16.05;5.65;;;;;;;;;;5005945;28;20054;-57
2022/03/10 04:42:39;;;;;;;14.93;5.70;;;;;;;;;;5028357;28;20073;-57
2022/03/10 04:45:06;;;;;;;11.23;4.97;;;;;;;;;;5007799;28;20084;-53
2022/03/10 04:47:33;;;;;;;12.90;5.78;;;;;;;;;;4992584;28;20054;-57
2022/03/10 04:50:00;;;;;;;16.98;6.18;;;;;;;;;;4991639;28;20128;-53
2022/03/10 04:52:26;;;;;;;21.90;7.38;;;;;;;;;;5003884;28;20107;-54
2022/03/10 04:54:53;;;;;;;18.52;6.57;;;;;;;;;;5001720;28;20041;-54
2022/03/10 04:57:21;;;;;;;24.25;7.80;;;;;;;;;;5002402;28;20060;-55
2022/03/10 04:59:48;;;;;;;19.73;7.10;;;;;;;;;;5013317;28;20053;-56
2022/03/10 05:02:14;;;;;;;21.08;7.55;;;;;;;;;;5008622;28;20443;-52
2022/03/10 05:04:41;;;;;;;18.67;7.00;;;;;;;;;;5025615;28;20049;-52
2022/03/10 05:07:07;;;;;;;17.65;6.65;;;;;;;;;;5003739;28;20054;-58
2022/03/10 05:09:34;;;;;;;15.02;6.28;;;;;;;;;;5010855;28;20045;-57
2022/03/10 05:12:00;;;;;;;18.35;7.68;;;;;;;;;;5005320;28;20041;-55
2022/03/10 05:14:28;;;;;;;18.63;6.47;;;;;;;;;;5011067;28;20132;-56
2022/03/10 05:16:55;;;;;;;17.35;6.35;;;;;;;;;;5004437;28;20116;-53
2022/03/10 05:19:21;;;;;;;18.33;6.70;;;;;;;;;;5010436;28;20061;-51
2022/03/10 05:21:48;;;;;;;16.27;6.68;;;;;;;;;;5004677;28;20983;-52
2022/03/10 05:24:15;;;;;;;17.20;6.78;;;;;;;;;;5030407;28;20060;-52
2022/03/10 05:26:41;;;;;;;20.38;7.35;;;;;;;;;;5024888;28;20139;-49
2022/03/10 05:29:08;;;;;;;19.73;6.65;;;;;;;;;;5009275;28;20061;-52
2022/03/10 05:31:36;;;;;;;20.05;7.90;;;;;;;;;;5010254;28;20061;-50
2022/03/10 05:34:04;;;;;;;20.30;7.33;;;;;;;;;;5013660;28;20126;-49
2022/03/10 05:36:30;;;;;;;17.10;6.73;;;;;;;;;;5046744;28;20063;-55
2022/03/10 05:38:56;;;;;;;21.42;6.75;;;;;;;;;;5021932;28;20153;-53
2022/03/10 05:41:23;;;;;;;17.15;6.95;;;;;;;;;;5004437;28;20053;-51
2022/03/10 05:43:50;;;;;;;23.13;7.35;;;;;;;;;;5004455;28;20156;-53
2022/03/10 05:46:16;;;;;;;16.77;6.35;;;;;;;;;;5009745;28;20123;-50
2022/03/10 05:48:44;;;;;;;17.45;7.45;;;;;;;;;;5004542;28;20057;-54
2022/03/10 05:51:10;;;;;;;14.13;5.53;;;;;;;;;;5027270;28;20080;-52
2022/03/10 05:53:38;;;;;;;16.63;5.60;;;;;;;;;;5004776;28;20112;-53
2022/03/10 05:56:05;;;;;;;14.52;5.07;;;;;;;;;;5009905;28;20124;-56
2022/03/10 05:58:31;;;;;;;15.25;6.05;;;;;;;;;;4998377;28;20063;-50
2022/03/10 06:00:57;;;;;;;16.83;6.95;;;;;;;;;;5001069;28;20046;-48
2022/03/10 06:03:24;;;;;;;14.13;6.18;;;;;;;;;;4994501;28;20170;-50
2022/03/10 06:05:52;;;;;;;16.75;6.45;;;;;;;;;;5007487;28;20104;-53
2022/03/10 06:08:18;;;;;;;19.67;6.35;;;;;;;;;;5004005;28;20061;-55
2022/03/10 06:10:45;;;;;;;17.50;5.82;;;;;;;;;;5008725;28;20132;-57
2022/03/10 06:13:14;;;;;;;17.58;6.53;;;;;;;;;;5002701;28;20068;-52
2022/03/10 06:15:40;;;;;;;19.00;6.53;;;;;;;;;;5017893;28;20066;-53
2022/03/10 06:18:08;;;;;;;20.08;6.93;;;;;;;;;;5011436;28;20111;-54
2022/03/10 06:20:34;;;;;;;15.95;6.50;;;;;;;;;;5004226;28;20057;-55
2022/03/10 06:23:02;;;;;;;18.17;7.05;;;;;;;;;;5004515;28;20053;-59
2022/03/10 06:25:29;;;;;;;14.35;5.97;;;;;;;;;;4996583;28;20133;-59
2022/03/10 06:27:55;;;;;;;15.93;6.28;;;;;;;;;;5008033;28;20121;-58
2022/03/10 06:30:22;;;;;;;19.80;7.45;;;;;;;;;;5005436;28;20140;-55
2022/03/10 06:32:48;;;;;;;18.98;6.75;;;;;;;;;;5005188;28;20060;-54
2022/03/10 06:35:15;;;;;;;15.65;6.35;;;;;;;;;;5007370;28;20065;-49
2022/03/10 06:37:41;;;;;;;16.33;5.55;;;;;;;;;;5021796;28;20088;-52
2022/03/10 06:40:10;;;;;;;18.48;6.38;;;;;;;;;;4996815;28;20050;-55
2022/03/10 06:42:36;;;;;;;14.48;5.68;;;;;;;;;;5001639;28;20057;-50
2022/03/10 06:45:03;;;;;;;15.10;5.60;;;;;;;;;;5023635;28;20120;-58
2022/03/10 06:47:30;;;;;;;14.95;5.40;;;;;;;;;;5016319;28;20244;-56
2022/03/10 06:49:56;;;;;;;16.30;6.80;;;;;;;;;;5003416;28;20073;-55
2022/03/10 06:52:23;;;;;;;17.77;6.35;;;;;;;;;;5010122;28;20117;-55
2022/03/10 06:54:55;;;;;;;19.92;6.20;;;;;;;;;;5028060;28;20060;-52
2022/03/10 06:57:23;;;;;;;16.73;5.93;;;;;;;;;;5003689;28;20073;-55
2022/03/10 06:59:50;;;;;;;16.67;6.15;;;;;;;;;;5021429;28;20144;-56
2022/03/10 07:02:17;;;;;;;19.88;6.38;;;;;;;;;;5006217;28;20123;-56
2022/03/10 07:04:43;;;;;;;17.88;6.70;;;;;;;;;;5028777;28;20118;-55
2022/03/10 07:07:10;;;;;;;18.13;6.07;;;;;;;;;;5013626;28;20073;-56
2022/03/10 07:09:37;;;;;;;15.60;5.82;;;;;;;;;;5024911;28;20069;-59
2022/03/10 07:12:04;;;;;;;18.80;6.85;;;;;;;;;;4999276;28;20054;-56
2022/03/10 07:14:32;;;;;;;17.60;7.00;;;;;;;;;;5004462;28;20145;-57
2022/03/10 07:16:59;;;;;;;22.10;6.80;;;;;;;;;;4999546;28;20045;-57
2022/03/10 07:19:25;;;;;;;16.45;6.13;;;;;;;;;;5026377;28;20049;-57
2022/03/10 07:21:52;;;;;;;20.27;6.32;;;;;;;;;;5019657;28;20053;-59
2022/03/10 07:24:21;;;;;;;17.00;5.38;;;;;;;;;;5020054;28;20053;-55
2022/03/10 07:26:47;;;;;;;20.30;6.35;;;;;;;;;;5002317;28;20053;-57
2022/03/10 07:29:14;;;;;;;18.58;6.75;;;;;;;;;;5007759;28;20058;-59
2022/03/10 07:31:42;;;;;;;17.95;6.95;;;;;;;;;;5006918;28;20073;-57
2022/03/10 07:34:08;;;;;;;15.33;6.57;;;;;;;;;;5013086;28;20061;-55
2022/03/10 07:36:35;;;;;;;20.23;6.38;;;;;;;;;;5012436;28;20311;-59
2022/03/10 07:39:01;;;;;;;15.57;6.05;;;;;;;;;;5019848;28;20077;-56
2022/03/10 07:41:28;;;;;;;16.00;6.07;;;;;;;;;;5008229;28;20049;-58
2022/03/10 07:43:54;;;;;;;13.82;6.00;;;;;;;;;;5007207;28;20064;-56
2022/03/10 07:46:23;;;;;;;19.13;6.82;;;;;;;;;;5012672;28;20053;-54
2022/03/10 07:48:51;;;;;;;19.08;6.63;;;;;;;;;;5007194;28;20060;-55
2022/03/10 07:51:18;;;;;;;16.40;5.97;;;;;;;;;;5011344;28;20053;-58
2022/03/10 07:53:45;;;;;;;20.30;6.88;;;;;;;;;;5006798;28;20103;-56
2022/03/10 07:56:11;;;;;;;17.45;6.13;;;;;;;;;;5033058;28;20046;-54
2022/03/10 07:58:39;;;;;;;20.77;7.38;;;;;;;;;;5018424;28;20045;-59
2022/03/10 08:01:06;;;;;;;26.88;8.02;;;;;;;;;;5027249;28;20046;-56
2022/03/10 08:03:33;;;;;;;23.77;8.00;;;;;;;;;;4995751;28;20843;-58
2022/03/10 08:06:00;;;;;;;17.05;6.53;;;;;;;;;;4992602;28;20077;-54
2022/03/10 08:08:27;;;;;;;17.85;7.30;;;;;;;;;;4990765;28;20060;-59
2022/03/10 08:10:53;;;;;;;20.77;6.78;;;;;;;;;;5030024;28;20072;-56
2022/03/10 08:13:26;;;;;;;12.73;5.47;;;;;;;;;;5024877;28;20048;-58
2022/03/10 08:15:52;;;;;;;18.50;6.20;;;;;;;;;;5011662;28;20593;-59
2022/03/10 08:18:19;;;;;;;15.35;6.38;;;;;;;;;;5009739;28;20057;-57
2022/03/10 08:20:45;;;;;;;15.88;5.97;;;;;;;;;;5009284;28;20123;-60
2022/03/10 08:23:16;;;;;;;15.25;6.30;;;;;;;;;;5012062;28;20058;-58
2022/03/10 08:25:43;;;;;;;21.88;6.60;;;;;;;;;;5006014;28;20056;-59
2022/03/10 08:28:09;;;;;;;12.82;5.30;;;;;;;;;;5011513;28;20105;-58
2022/03/10 08:30:36;;;;;;;22.65;7.72;;;;;;;;;;5007084;28;20053;-55
2022/03/10 08:33:03;;;;;;;18.85;6.68;;;;;;;;;;5012478;28;20054;-56
2022/03/10 08:35:30;;;;;;;19.38;7.07;;;;;;;;;;5006995;28;20065;-55
2022/03/10 08:37:56;;;;;;;18.25;6.10;;;;;;;;;;5012138;28;20060;-56
2022/03/10 08:40:25;;;;;;;17.30;6.88;;;;;;;;;;5005824;28;20049;-51
2022/03/10 08:42:52;;;;;;;21.25;7.70;;;;;;;;;;5011470;28;20061;-54
2022/03/10 08:45:19;;;;;;;20.75;6.88;;;;;;;;;;5005924;28;20168;-56
2022/03/10 08:47:45;;;;;;;16.77;6.45;;;;;;;;;;5011367;28;20081;-55
2022/03/10 08:50:12;;;;;;;16.90;7.15;;;;;;;;;;4997860;28;20060;-54
2022/03/10 08:52:39;;;;;;;22.17;6.38;;;;;;;;;;5010984;28;20063;-58
2022/03/10 08:55:06;;;;;;;20.73;7.18;;;;;;;;;;5005376;28;20133;-53
2022/03/10 08:57:34;;;;;;;22.48;7.75;;;;;;;;;;5028650;28;20133;-58
2022/03/10 09:00:02;;;;;;;15.77;6.07;;;;;;;;;;5007315;28;20049;-58
2022/03/10 09:02:29;;;;;;;16.08;5.85;;;;;;;;;;5010440;28;20059;-57
2022/03/10 09:04:55;;;;;;;24.63;8.23;;;;;;;;;;5027219;28;20056;-56
2022/03/10 09:07:21;;;;;;;16.20;6.35;;;;;;;;;;5003530;28;20061;-56
2022/03/10 09:09:48;;;;;;;25.85;7.88;;;;;;;;;;5011125;28;20095;-51
2022/03/10 09:12:14;;;;;;;16.17;6.38;;;;;;;;;;4990235;28;20162;-54
2022/03/10 09:14:44;;;;;;;18.25;6.97;;;;;;;;;;4991503;28;20137;-58
2022/03/10 09:17:10;;;;;;;24.10;8.00;;;;;;;;;;4998039;28;20053;-52
2022/03/10 09:19:37;;;;;;;23.75;8.93;;;;;;;;;;5010601;28;20068;-57
2022/03/10 09:22:04;;;;;;;21.10;7.15;;;;;;;;;;4994567;28;20077;-58
2022/03/10 09:24:31;;;;;;;22.77;8.65;;;;;;;;;;5007684;28;20074;-55
2022/03/10 09:26:58;;;;;;;24.50;8.52;;;;;;;;;;4986512;28;20117;-59
2022/03/10 09:29:25;;;;;;;22.00;7.35;;;;;;;;;;4993987;28;20053;-57
2022/03/10 09:31:53;;;;;;;21.02;7.55;;;;;;;;;;4988544;28;20046;-56
2022/03/10 09:34:20;;;;;;;15.05;6.20;;;;;;;;;;4993000;28;20129;-55
2022/03/10 09:36:46;;;;;;;18.55;6.60;;;;;;;;;;4988963;28;20136;-57
2022/03/10 09:39:13;;;;;;;16.95;6.45;;;;;;;;;;5011416;28;20064;-57
2022/03/10 09:41:40;;;;;;;18.05;7.20;;;;;;;;;;5004988;28;20049;-57
2022/03/10 09:44:12;;;;;;;16.98;7.07;;;;;;;;;;5011375;28;20058;-58
2022/03/10 09:46:39;;;;;;;22.95;7.95;;;;;;;;;;4991272;28;20069;-58
2022/03/10 09:49:07;;;;;;;20.15;8.73;;;;;;;;;;4975176;28;20053;-55
2022/03/10 09:51:34;;;;;;;25.92;9.70;;;;;;;;;;4991378;28;20104;-56
2022/03/10 09:54:02;;;;;;;18.83;6.40;;;;;;;;;;5001904;28;20057;-56
2022/03/10 09:56:28;;;;;;;28.10;9.40;;;;;;;;;;5027710;28;20049;-56
2022/03/10 09:58:55;;;;;;;24.73;8.32;;;;;;;;;;4979170;28;20403;-54
2022/03/10 10:01:21;;;;;;;26.52;8.27;;;;;;;;;;4984564;28;20050;-54
2022/03/10 10:03:48;;;;;;;19.23;7.57;;;;;;;;;;4986948;28;20057;-59
2022/03/10 10:06:16;;;;;;;21.17;7.90;;;;;;;;;;4990129;28;20057;-57
2022/03/10 10:08:42;;;;;;;22.50;8.73;;;;;;;;;;5001717;28;20313;-52
2022/03/10 10:11:13;;;;;;;25.90;7.72;;;;;;;;;;4990914;28;20063;-54
2022/03/10 10:13:42;;;;;;;24.02;8.43;;;;;;;;;;5001206;28;20053;-61
2022/03/10 10:16:09;;;;;;;25.55;9.02;;;;;;;;;;5007152;28;20072;-60
2022/03/10 10:18:37;;;;;;;22.10;8.27;;;;;;;;;;4988920;28;20100;-59
2022/03/10 10:21:05;;;;;;;28.42;8.07;;;;;;;;;;5010138;28;20080;-55
2022/03/10 10:23:34;;;;;;;24.63;9.38;;;;;;;;;;4999400;28;20050;-57
2022/03/10 10:26:01;;;;;;;23.73;8.93;;;;;;;;;;5007636;28;20038;-53
2022/03/10 10:28:31;;;;;;;24.58;9.30;;;;;;;;;;4986731;28;20046;-59
2022/03/10 10:30:58;;;;;;;21.73;7.97;;;;;;;;;;4991119;28;20049;-57
2022/03/10 10:33:27;;;;;;;28.43;9.77;;;;;;;;;;4990794;28;20077;-59
2022/03/10 10:36:09;;;;;;;20.52;7.95;;;;;;;;;;4999260;28;20046;-57
2022/03/10 10:38:37;;;;;;;33.55;10.02;;;;;;;;;;5006507;28;20065;-55
2022/03/10 10:41:16;;;;;;;32.58;9.82;;;;;;;;;;4991547;28;20175;-57
2022/03/10 10:43:46;;;;;;;22.90;9.30;;;;;;;;;;4990661;28;20065;-55
2022/03/10 10:46:21;;;;;;;20.63;8.63;;;;;;;;;;4975856;28;20148;-58
2022/03/10 10:48:48;;;;;;;23.45;8.70;;;;;;;;;;4971512;28;20066;-52
2022/03/10 10:51:15;;;;;;;25.58;9.45;;;;;;;;;;4998053;28;20061;-58
2022/03/10 10:53:45;;;;;;;23.27;9.40;;;;;;;;;;5010046;28;20051;-55
2022/03/10 10:56:16;;;;;;;22.42;9.20;;;;;;;;;;5006395;28;20076;-52
2022/03/10 10:58:46;;;;;;;21.98;8.75;;;;;;;;;;5007510;28;20053;-61
2022/03/10 11:01:26;;;;;;;24.10;9.45;;;;;;;;;;4986223;28;20133;-56
2022/03/10 11:03:53;;;;;;;21.02;8.55;;;;;;;;;;4994520;28;20074;-57
2022/03/10 11:06:20;;;;;;;28.27;10.43;;;;;;;;;;5005835;28;20073;-54
2022/03/10 11:08:48;;;;;;;23.08;7.75;;;;;;;;;;5017523;28;20049;-55
2022/03/10 11:11:16;;;;;;;21.15;7.13;;;;;;;;;;5013041;28;20063;-54
2022/03/10 11:13:42;;;;;;;26.55;10.07;;;;;;;;;;5008857;28;20096;-57
2022/03/10 11:16:09;;;;;;;27.98;9.77;;;;;;;;;;5002595;28;20058;-56
2022/03/10 11:18:36;;;;;;;21.95;9.10;;;;;;;;;;5009273;28;20073;-56
2022/03/10 11:21:08;;;;;;;30.08;10.52;;;;;;;;;;5004194;28;20053;-55
2022/03/10 11:23:40;;;;;;;26.02;10.07;;;;;;;;;;5008883;28;20058;-58
2022/03/10 11:26:11;;;;;;;35.70;10.10;;;;;;;;;;5003769;28;20053;-56
2022/03/10 11:28:42;;;;;;;25.45;10.02;;;;;;;;;;5024725;28;20061;-60
2022/03/10 11:31:09;;;;;;;25.20;9.82;;;;;;;;;;5005512;28;20092;-56
2022/03/10 11:33:37;;;;;;;28.77;9.35;;;;;;;;;;5013003;28;20059;-60
2022/03/10 11:36:19;;;;;;;27.73;11.23;;;;;;;;;;5006432;28;20057;-52
2022/03/10 11:38:56;;;;;;;21.95;8.57;;;;;;;;;;4993781;28;20057;-53
2022/03/10 11:41:26;;;;;;;20.15;8.60;;;;;;;;;;5001543;28;20054;-58
2022/03/10 11:43:58;;;;;;;21.90;9.38;;;;;;;;;;5012600;28;20049;-56
2022/03/10 11:46:25;;;;;;;27.75;10.80;;;;;;;;;;5008813;28;20049;-56
2022/03/10 11:49:02;;;;;;;28.23;10.55;;;;;;;;;;5024596;28;20054;-55
2022/03/10 11:51:42;;;;;;;25.45;9.73;;;;;;;;;;4993194;28;20144;-56
2022/03/10 11:54:11;;;;;;;26.30;8.20;;;;;;;;;;4993254;28;20061;-51
2022/03/10 11:57:05;;;;;;;21.63;9.32;;;;;;;;;;5009285;28;20050;-52
2022/03/10 11:59:47;;;;;;;24.52;9.70;;;;;;;;;;4992416;28;20060;-58
2022/03/10 12:02:33;;;;;;;30.70;9.90;;;;;;;;;;4990262;28;20054;-59
2022/03/10 12:05:00;;;;;;;21.48;8.50;;;;;;;;;;5025675;28;20143;-57
2022/03/10 12:07:30;;;;;;;21.08;8.85;;;;;;;;;;5007986;28;20059;-53
2022/03/10 12:10:04;;;;;;;25.88;9.82;;;;;;;;;;5010909;28;20080;-53
2022/03/10 12:12:35;;;;;;;26.52;9.52;;;;;;;;;;5004723;28;20060;-48
2022/03/10 12:15:17;;;;;;;30.70;10.38;;;;;;;;;;5010149;28;20069;-56
2022/03/10 12:17:52;;;;;;;26.55;9.00;;;;;;;;;;5005789;28;20061;-56
2022/03/10 12:20:20;;;;;;;21.77;8.75;;;;;;;;;;5032002;28;20060;-58
2022/03/10 12:23:01;;;;;;;23.33;9.52;;;;;;;;;;5032285;28;20087;-52
2022/03/10 12:25:28;;;;;;;23.42;8.95;;;;;;;;;;4992502;28;20064;-60
2022/03/10 12:27:55;;;;;;;21.63;8.75;;;;;;;;;;4992669;28;20093;-52
2022/03/10 12:30:22;;;;;;;23.75;9.30;;;;;;;;;;5006155;28;20049;-61
2022/03/10 12:32:51;;;;;;;19.33;7.93;;;;;;;;;;5014083;28;20100;-61
2022/03/10 12:35:19;;;;;;;19.77;7.47;;;;;;;;;;5007245;28;20049;-60
2022/03/10 12:37:46;;;;;;;19.33;7.88;;;;;;;;;;5014117;28;20045;-61
2022/03/10 12:40:19;;;;;;;21.23;8.35;;;;;;;;;;5020882;28;20124;-60
2022/03/10 12:42:47;;;;;;;21.25;8.65;;;;;;;;;;4994852;28;20041;-61
2022/03/10 12:45:14;;;;;;;22.50;7.43;;;;;;;;;;5021162;28;20042;-59
2022/03/10 12:47:43;;;;;;;24.45;8.07;;;;;;;;;;4993798;28;20136;-55
2022/03/10 12:50:11;;;;;;;20.23;8.35;;;;;;;;;;4998314;28;20054;-60
2022/03/10 12:52:40;;;;;;;24.17;8.60;;;;;;;;;;5013063;28;20117;-54
2022/03/10 12:55:07;;;;;;;21.95;8.93;;;;;;;;;;5005600;28;20305;-56
2022/03/10 12:57:35;;;;;;;20.92;8.95;;;;;;;;;;5011583;28;20049;-56
2022/03/10 13:00:02;;;;;;;20.63;8.07;;;;;;;;;;5022291;28;20100;-55
2022/03/10 13:02:29;;;;;;;21.17;8.88;;;;;;;;;;5027886;28;20049;-53
2022/03/10 13:04:57;;;;;;;20.08;8.15;;;;;;;;;;5004938;28;20066;-55
2022/03/10 13:07:28;;;;;;;22.77;8.48;;;;;;;;;;5010867;28;20064;-55
2022/03/10 13:09:54;;;;;;;21.95;8.80;;;;;;;;;;5006242;28;20061;-58
2022/03/10 13:12:25;;;;;;;17.92;8.00;;;;;;;;;;5031163;28;20051;-55
2022/03/10 13:14:51;;;;;;;22.63;8.85;;;;;;;;;;5044176;28;20060;-57
2022/03/10 13:17:18;;;;;;;21.60;8.82;;;;;;;;;;5009044;28;20049;-54
2022/03/10 13:19:44;;;;;;;19.20;9.13;;;;;;;;;;5011180;28;20133;-55
2022/03/10 13:22:11;;;;;;;23.33;9.77;;;;;;;;;;4998638;28;20111;-57
2022/03/10 13:24:41;;;;;;;19.23;8.70;;;;;;;;;;5010608;28;20157;-53
2022/03/10 13:27:09;;;;;;;15.07;6.40;;;;;;;;;;5007311;28;20053;-53
2022/03/10 13:29:36;;;;;;;18.73;8.85;;;;;;;;;;5030598;28;20052;-56
2022/03/10 13:32:03;;;;;;;20.00;9.25;;;;;;;;;;5005596;28;20076;-58
2022/03/10 13:34:31;;;;;;;19.05;7.65;;;;;;;;;;5010495;28;20053;-58
2022/03/10 13:36:58;;;;;;;15.95;8.05;;;;;;;;;;5004415;28;20056;-58
2022/03/10 13:39:25;;;;;;;22.52;9.02;;;;;;;;;;5010903;28;20049;-57
2022/03/10 13:41:55;;;;;;;27.10;9.23;;;;;;;;;;5004358;28;20052;-60
2022/03/10 13:44:22;;;;;;;22.27;9.15;;;;;;;;;;5011674;28;20049;-57
2022/03/10 13:46:49;;;;;;;21.85;9.23;;;;;;;;;;5018345;28;20133;-55
2022/03/10 13:49:19;;;;;;;21.90;8.75;;;;;;;;;;4991051;28;20065;-59
2022/03/10 13:51:46;;;;;;;18.20;8.48;;;;;;;;;;4988838;28;20065;-57
2022/03/10 13:54:16;;;;;;;25.00;9.13;;;;;;;;;;5026537;28;20095;-58
2022/03/10 13:56:43;;;;;;;18.20;8.57;;;;;;;;;;5004293;28;20160;-58
2022/03/10 13:59:11;;;;;;;19.58;8.05;;;;;;;;;;5010921;28;20053;-57
2022/03/10 14:01:39;;;;;;;18.45;7.32;;;;;;;;;;5010320;28;20046;-53
2022/03/10 14:04:09;;;;;;;19.20;8.02;;;;;;;;;;5022964;28;20081;-60
2022/03/10 14:06:41;;;;;;;18.10;8.13;;;;;;;;;;5026974;28;20057;-57
2022/03/10 14:09:16;;;;;;;23.65;9.05;;;;;;;;;;4999375;28;20062;-59
2022/03/10 14:11:42;;;;;;;18.27;7.97;;;;;;;;;;4987532;28;20050;-61
2022/03/10 14:14:37;;;;;;;19.85;7.90;;;;;;;;;;5084906;27;20403;-62
2022/03/10 14:17:04;;;;;;;17.30;8.02;;;;;;;;;;5065180;28;20049;-61
2022/03/10 14:19:32;;;;;;;21.40;8.70;;;;;;;;;;5044377;28;20056;-62
2022/03/10 14:22:00;;;;;;;17.25;7.38;;;;;;;;;;5058582;28;20049;-61
2022/03/10 14:24:28;;;;;;;19.52;7.43;;;;;;;;;;5052391;28;20056;-60
2022/03/10 14:27:05;;;;;;;20.85;6.88;;;;;;;;;;5077996;28;20056;-61
2022/03/10 14:29:38;;;;;;;21.38;8.30;;;;;;;;;;5076431;28;20052;-61
2022/03/10 14:32:05;;;;;;;17.33;7.65;;;;;;;;;;5069526;28;20068;-61
2022/03/10 14:34:31;;;;;;;18.02;6.88;;;;;;;;;;5075391;28;20058;-57
2022/03/10 14:36:58;;;;;;;16.05;7.57;;;;;;;;;;5067616;28;20118;-58
2022/03/10 14:39:24;;;;;;;16.60;7.20;;;;;;;;;;5071739;28;20060;-61
2022/03/10 14:41:53;;;;;;;;;;;;;;;;;;5087380;28;20051;-61